sensor_id;sensor_type;location;lat;lon;timestamp;P1;durP1;ratioP1;P2;durP2;ratioP2
68763;SDS011;55754;52.038;5.566;2022-08-20T00:01:49;12.23;;;6.27;;
68763;SDS011;55754;52.038;5.566;2022-08-20T00:04:15;11.93;;;6.40;;
68763;SDS011;55754;52.038;5.566;2022-08-20T00:06:41;13.20;;;7.25;;
68763;SDS011;55754;52.038;5.566;2022-08-20T00:09:06;17.27;;;7.00;;
68763;SDS011;55754;52.038;5.566;2022-08-20T00:11:32;14.60;;;6.75;;
68763;SDS011;55754;52.038;5.566;2022-08-20T00:13:59;14.97;;;7.20;;
68763;SDS011;55754;52.038;5.566;2022-08-20T00:16:28;12.82;;;6.70;;
68763;SDS011;55754;52.038;5.566;2022-08-20T00:18:57;11.50;;;6.60;;
68763;SDS011;55754;52.038;5.566;2022-08-20T00:21:24;13.20;;;6.43;;
68763;SDS011;55754;52.038;5.566;2022-08-20T00:23:50;14.75;;;7.38;;
68763;SDS011;55754;52.038;5.566;2022-08-20T00:26:18;12.85;;;7.07;;
68763;SDS011;55754;52.038;5.566;2022-08-20T00:28:45;16.13;;;7.30;;
68763;SDS011;55754;52.038;5.566;2022-08-20T00:31:12;13.85;;;7.50;;
68763;SDS011;55754;52.038;5.566;2022-08-20T00:33:40;15.18;;;7.10;;
68763;SDS011;55754;52.038;5.566;2022-08-20T00:36:07;14.20;;;7.10;;
68763;SDS011;55754;52.038;5.566;2022-08-20T00:38:38;14.60;;;7.65;;
68763;SDS011;55754;52.038;5.566;2022-08-20T00:41:09;12.60;;;7.03;;
68763;SDS011;55754;52.038;5.566;2022-08-20T00:48:37;13.57;;;7.75;;
68763;SDS011;55754;52.038;5.566;2022-08-20T00:51:13;14.17;;;7.83;;
68763;SDS011;55754;52.038;5.566;2022-08-20T00:53:51;14.27;;;7.85;;
68763;SDS011;55754;52.038;5.566;2022-08-20T00:56:22;14.75;;;7.53;;
68763;SDS011;55754;52.038;5.566;2022-08-20T00:58:48;15.13;;;7.80;;
68763;SDS011;55754;52.038;5.566;2022-08-20T01:01:16;15.40;;;8.00;;
68763;SDS011;55754;52.038;5.566;2022-08-20T01:03:43;13.45;;;7.70;;
68763;SDS011;55754;52.038;5.566;2022-08-20T01:06:09;16.27;;;8.10;;
68763;SDS011;55754;52.038;5.566;2022-08-20T01:08:36;14.90;;;8.20;;
68763;SDS011;55754;52.038;5.566;2022-08-20T01:11:04;15.10;;;8.23;;
68763;SDS011;55754;52.038;5.566;2022-08-20T01:13:37;18.07;;;7.97;;
68763;SDS011;55754;52.038;5.566;2022-08-20T01:16:07;16.42;;;8.07;;
68763;SDS011;55754;52.038;5.566;2022-08-20T01:18:37;16.23;;;8.27;;
68763;SDS011;55754;52.038;5.566;2022-08-20T01:21:04;14.98;;;8.70;;
68763;SDS011;55754;52.038;5.566;2022-08-20T01:23:36;15.97;;;9.07;;
68763;SDS011;55754;52.038;5.566;2022-08-20T01:26:08;17.10;;;9.63;;
68763;SDS011;55754;52.038;5.566;2022-08-20T01:31:13;15.97;;;9.50;;
68763;SDS011;55754;52.038;5.566;2022-08-20T01:33:44;18.70;;;9.50;;
68763;SDS011;55754;52.038;5.566;2022-08-20T01:36:11;17.73;;;9.57;;
68763;SDS011;55754;52.038;5.566;2022-08-20T01:38:38;19.23;;;9.73;;
68763;SDS011;55754;52.038;5.566;2022-08-20T01:43:50;18.80;;;9.30;;
68763;SDS011;55754;52.038;5.566;2022-08-20T01:46:22;17.73;;;9.35;;
68763;SDS011;55754;52.038;5.566;2022-08-20T01:48:50;17.87;;;10.10;;
68763;SDS011;55754;52.038;5.566;2022-08-20T01:51:19;17.02;;;9.90;;
68763;SDS011;55754;52.038;5.566;2022-08-20T01:53:49;18.45;;;9.85;;
68763;SDS011;55754;52.038;5.566;2022-08-20T01:56:18;17.87;;;9.00;;
68763;SDS011;55754;52.038;5.566;2022-08-20T01:58:50;18.42;;;9.38;;
68763;SDS011;55754;52.038;5.566;2022-08-20T02:01:19;15.80;;;9.15;;
68763;SDS011;55754;52.038;5.566;2022-08-20T02:03:54;15.50;;;9.47;;
68763;SDS011;55754;52.038;5.566;2022-08-20T02:06:21;17.88;;;9.57;;
68763;SDS011;55754;52.038;5.566;2022-08-20T02:08:59;19.05;;;9.90;;
68763;SDS011;55754;52.038;5.566;2022-08-20T02:11:27;19.65;;;10.25;;
68763;SDS011;55754;52.038;5.566;2022-08-20T02:13:54;18.40;;;10.17;;
68763;SDS011;55754;52.038;5.566;2022-08-20T02:16:23;18.88;;;10.05;;
68763;SDS011;55754;52.038;5.566;2022-08-20T02:18:53;17.23;;;9.38;;
68763;SDS011;55754;52.038;5.566;2022-08-20T02:21:22;17.20;;;9.47;;
68763;SDS011;55754;52.038;5.566;2022-08-20T02:23:51;15.68;;;9.50;;
68763;SDS011;55754;52.038;5.566;2022-08-20T02:26:17;20.38;;;9.82;;
68763;SDS011;55754;52.038;5.566;2022-08-20T02:28:44;20.53;;;11.63;;
68763;SDS011;55754;52.038;5.566;2022-08-20T02:31:12;21.70;;;11.52;;
68763;SDS011;55754;52.038;5.566;2022-08-20T02:33:38;21.55;;;11.80;;
68763;SDS011;55754;52.038;5.566;2022-08-20T02:36:04;20.33;;;11.33;;
68763;SDS011;55754;52.038;5.566;2022-08-20T02:38:30;24.13;;;11.50;;
68763;SDS011;55754;52.038;5.566;2022-08-20T02:40:58;19.58;;;10.77;;
68763;SDS011;55754;52.038;5.566;2022-08-20T02:43:26;18.97;;;10.73;;
68763;SDS011;55754;52.038;5.566;2022-08-20T02:45:51;18.83;;;10.85;;
68763;SDS011;55754;52.038;5.566;2022-08-20T02:48:18;18.27;;;10.33;;
68763;SDS011;55754;52.038;5.566;2022-08-20T02:50:52;19.27;;;10.23;;
68763;SDS011;55754;52.038;5.566;2022-08-20T02:53:19;18.50;;;10.35;;
68763;SDS011;55754;52.038;5.566;2022-08-20T02:55:46;19.30;;;10.17;;
68763;SDS011;55754;52.038;5.566;2022-08-20T02:58:12;23.75;;;10.70;;
68763;SDS011;55754;52.038;5.566;2022-08-20T03:00:38;19.80;;;11.07;;
68763;SDS011;55754;52.038;5.566;2022-08-20T03:03:08;21.90;;;10.40;;
68763;SDS011;55754;52.038;5.566;2022-08-20T03:05:35;17.50;;;10.27;;
68763;SDS011;55754;52.038;5.566;2022-08-20T03:08:02;18.02;;;10.13;;
68763;SDS011;55754;52.038;5.566;2022-08-20T03:10:29;17.97;;;9.60;;
68763;SDS011;55754;52.038;5.566;2022-08-20T03:12:57;18.85;;;9.07;;
68763;SDS011;55754;52.038;5.566;2022-08-20T03:15:26;15.68;;;8.38;;
68763;SDS011;55754;52.038;5.566;2022-08-20T03:17:53;17.70;;;8.67;;
68763;SDS011;55754;52.038;5.566;2022-08-20T03:20:18;16.60;;;8.15;;
68763;SDS011;55754;52.038;5.566;2022-08-20T03:22:44;14.02;;;7.30;;
68763;SDS011;55754;52.038;5.566;2022-08-20T03:25:10;15.10;;;6.97;;
68763;SDS011;55754;52.038;5.566;2022-08-20T03:27:36;14.88;;;6.80;;
68763;SDS011;55754;52.038;5.566;2022-08-20T03:30:06;14.57;;;6.28;;
68763;SDS011;55754;52.038;5.566;2022-08-20T03:32:34;11.77;;;6.53;;
68763;SDS011;55754;52.038;5.566;2022-08-20T03:35:00;11.52;;;5.95;;
68763;SDS011;55754;52.038;5.566;2022-08-20T03:37:32;13.63;;;5.95;;
68763;SDS011;55754;52.038;5.566;2022-08-20T03:39:59;12.80;;;6.30;;
68763;SDS011;55754;52.038;5.566;2022-08-20T03:42:25;12.93;;;5.70;;
68763;SDS011;55754;52.038;5.566;2022-08-20T03:44:51;13.20;;;5.80;;
68763;SDS011;55754;52.038;5.566;2022-08-20T03:47:17;11.50;;;5.93;;
68763;SDS011;55754;52.038;5.566;2022-08-20T03:49:43;11.18;;;5.72;;
68763;SDS011;55754;52.038;5.566;2022-08-20T03:52:09;11.38;;;5.88;;
68763;SDS011;55754;52.038;5.566;2022-08-20T03:54:35;13.43;;;6.00;;
68763;SDS011;55754;52.038;5.566;2022-08-20T03:57:00;14.00;;;6.07;;
68763;SDS011;55754;52.038;5.566;2022-08-20T03:59:27;11.00;;;5.50;;
68763;SDS011;55754;52.038;5.566;2022-08-20T04:01:53;11.85;;;5.47;;
68763;SDS011;55754;52.038;5.566;2022-08-20T04:04:20;13.32;;;5.70;;
68763;SDS011;55754;52.038;5.566;2022-08-20T04:06:46;13.10;;;5.67;;
68763;SDS011;55754;52.038;5.566;2022-08-20T04:09:12;10.35;;;5.18;;
68763;SDS011;55754;52.038;5.566;2022-08-20T04:11:41;10.87;;;5.27;;
68763;SDS011;55754;52.038;5.566;2022-08-20T04:14:08;10.63;;;5.00;;
68763;SDS011;55754;52.038;5.566;2022-08-20T04:16:34;10.07;;;5.40;;
68763;SDS011;55754;52.038;5.566;2022-08-20T04:19:01;10.35;;;4.97;;
68763;SDS011;55754;52.038;5.566;2022-08-20T04:21:31;12.53;;;5.10;;
68763;SDS011;55754;52.038;5.566;2022-08-20T04:23:58;10.38;;;4.90;;
68763;SDS011;55754;52.038;5.566;2022-08-20T04:26:24;10.77;;;5.30;;
68763;SDS011;55754;52.038;5.566;2022-08-20T04:28:49;12.17;;;5.10;;
68763;SDS011;55754;52.038;5.566;2022-08-20T04:31:16;9.85;;;4.80;;
68763;SDS011;55754;52.038;5.566;2022-08-20T04:33:42;10.93;;;4.77;;
68763;SDS011;55754;52.038;5.566;2022-08-20T04:36:08;11.30;;;4.50;;
68763;SDS011;55754;52.038;5.566;2022-08-20T04:38:34;10.05;;;4.40;;
68763;SDS011;55754;52.038;5.566;2022-08-20T04:41:00;12.30;;;4.40;;
68763;SDS011;55754;52.038;5.566;2022-08-20T04:43:30;10.02;;;4.28;;
68763;SDS011;55754;52.038;5.566;2022-08-20T04:45:59;9.85;;;4.18;;
68763;SDS011;55754;52.038;5.566;2022-08-20T04:48:32;10.40;;;4.43;;
68763;SDS011;55754;52.038;5.566;2022-08-20T04:50:58;10.80;;;4.13;;
68763;SDS011;55754;52.038;5.566;2022-08-20T04:53:26;12.90;;;4.70;;
68763;SDS011;55754;52.038;5.566;2022-08-20T04:55:53;10.18;;;4.00;;
68763;SDS011;55754;52.038;5.566;2022-08-20T04:58:22;10.07;;;4.40;;
68763;SDS011;55754;52.038;5.566;2022-08-20T05:00:53;10.02;;;4.60;;
68763;SDS011;55754;52.038;5.566;2022-08-20T05:03:20;12.93;;;4.80;;
68763;SDS011;55754;52.038;5.566;2022-08-20T05:05:46;9.65;;;4.38;;
68763;SDS011;55754;52.038;5.566;2022-08-20T05:08:14;9.65;;;4.40;;
68763;SDS011;55754;52.038;5.566;2022-08-20T05:10:42;14.50;;;4.80;;
68763;SDS011;55754;52.038;5.566;2022-08-20T05:13:09;12.40;;;4.13;;
68763;SDS011;55754;52.038;5.566;2022-08-20T05:15:35;9.77;;;4.30;;
68763;SDS011;55754;52.038;5.566;2022-08-20T05:18:03;9.70;;;4.27;;
68763;SDS011;55754;52.038;5.566;2022-08-20T05:20:30;10.82;;;4.90;;
68763;SDS011;55754;52.038;5.566;2022-08-20T05:22:57;12.73;;;4.60;;
68763;SDS011;55754;52.038;5.566;2022-08-20T05:25:24;9.52;;;4.80;;
68763;SDS011;55754;52.038;5.566;2022-08-20T05:27:59;10.73;;;4.87;;
68763;SDS011;55754;52.038;5.566;2022-08-20T05:30:30;11.07;;;4.50;;
68763;SDS011;55754;52.038;5.566;2022-08-20T05:32:58;10.10;;;4.80;;
68763;SDS011;55754;52.038;5.566;2022-08-20T05:35:24;11.43;;;4.80;;
68763;SDS011;55754;52.038;5.566;2022-08-20T05:37:51;9.13;;;4.80;;
68763;SDS011;55754;52.038;5.566;2022-08-20T05:40:18;13.98;;;5.38;;
68763;SDS011;55754;52.038;5.566;2022-08-20T05:42:43;13.33;;;5.47;;
68763;SDS011;55754;52.038;5.566;2022-08-20T05:45:09;13.95;;;5.75;;
68763;SDS011;55754;52.038;5.566;2022-08-20T05:47:36;13.43;;;6.00;;
68763;SDS011;55754;52.038;5.566;2022-08-20T05:50:04;12.40;;;6.40;;
68763;SDS011;55754;52.038;5.566;2022-08-20T05:52:31;12.82;;;6.50;;
68763;SDS011;55754;52.038;5.566;2022-08-20T05:54:57;16.00;;;6.40;;
68763;SDS011;55754;52.038;5.566;2022-08-20T05:57:23;12.60;;;6.03;;
68763;SDS011;55754;52.038;5.566;2022-08-20T05:59:48;13.80;;;5.97;;
68763;SDS011;55754;52.038;5.566;2022-08-20T06:02:14;12.77;;;5.77;;
68763;SDS011;55754;52.038;5.566;2022-08-20T06:04:58;16.23;;;5.90;;
68763;SDS011;55754;52.038;5.566;2022-08-20T06:07:23;12.43;;;5.73;;
68763;SDS011;55754;52.038;5.566;2022-08-20T06:09:49;14.35;;;6.03;;
68763;SDS011;55754;52.038;5.566;2022-08-20T06:12:15;13.53;;;6.27;;
68763;SDS011;55754;52.038;5.566;2022-08-20T06:14:42;17.55;;;6.78;;
68763;SDS011;55754;52.038;5.566;2022-08-20T06:17:15;14.23;;;6.70;;
68763;SDS011;55754;52.038;5.566;2022-08-20T06:19:43;12.55;;;6.43;;
68763;SDS011;55754;52.038;5.566;2022-08-20T06:22:10;14.07;;;6.70;;
68763;SDS011;55754;52.038;5.566;2022-08-20T06:24:37;14.60;;;6.45;;
68763;SDS011;55754;52.038;5.566;2022-08-20T06:27:03;14.37;;;6.73;;
68763;SDS011;55754;52.038;5.566;2022-08-20T06:29:29;14.63;;;6.47;;
68763;SDS011;55754;52.038;5.566;2022-08-20T06:31:57;13.88;;;6.95;;
68763;SDS011;55754;52.038;5.566;2022-08-20T06:34:23;16.77;;;6.55;;
68763;SDS011;55754;52.038;5.566;2022-08-20T06:36:55;14.80;;;7.03;;
68763;SDS011;55754;52.038;5.566;2022-08-20T06:39:22;14.05;;;6.63;;
68763;SDS011;55754;52.038;5.566;2022-08-20T06:41:48;15.85;;;7.25;;
68763;SDS011;55754;52.038;5.566;2022-08-20T06:44:15;14.27;;;7.10;;
68763;SDS011;55754;52.038;5.566;2022-08-20T06:46:41;18.52;;;8.07;;
68763;SDS011;55754;52.038;5.566;2022-08-20T06:49:07;13.15;;;7.75;;
68763;SDS011;55754;52.038;5.566;2022-08-20T06:51:33;14.17;;;7.97;;
68763;SDS011;55754;52.038;5.566;2022-08-20T06:54:01;14.98;;;8.23;;
68763;SDS011;55754;52.038;5.566;2022-08-20T06:56:27;13.00;;;7.18;;
68763;SDS011;55754;52.038;5.566;2022-08-20T06:58:53;13.00;;;7.20;;
68763;SDS011;55754;52.038;5.566;2022-08-20T07:01:18;17.65;;;6.72;;
68763;SDS011;55754;52.038;5.566;2022-08-20T07:03:45;16.77;;;7.20;;
68763;SDS011;55754;52.038;5.566;2022-08-20T07:06:12;17.20;;;6.47;;
68763;SDS011;55754;52.038;5.566;2022-08-20T07:08:38;13.50;;;6.15;;
68763;SDS011;55754;52.038;5.566;2022-08-20T07:11:04;13.02;;;4.93;;
68763;SDS011;55754;52.038;5.566;2022-08-20T07:13:30;13.23;;;5.60;;
68763;SDS011;55754;52.038;5.566;2022-08-20T07:15:56;10.10;;;5.30;;
68763;SDS011;55754;52.038;5.566;2022-08-20T07:18:22;14.13;;;5.40;;
68763;SDS011;55754;52.038;5.566;2022-08-20T07:20:48;13.82;;;5.60;;
68763;SDS011;55754;52.038;5.566;2022-08-20T07:23:14;10.80;;;5.20;;
68763;SDS011;55754;52.038;5.566;2022-08-20T07:25:40;12.47;;;5.33;;
68763;SDS011;55754;52.038;5.566;2022-08-20T07:28:11;15.23;;;5.50;;
68763;SDS011;55754;52.038;5.566;2022-08-20T07:30:39;11.73;;;4.35;;
68763;SDS011;55754;52.038;5.566;2022-08-20T07:33:25;14.07;;;4.30;;
68763;SDS011;55754;52.038;5.566;2022-08-20T07:35:53;13.48;;;4.32;;
68763;SDS011;55754;52.038;5.566;2022-08-20T07:38:20;12.05;;;4.30;;
68763;SDS011;55754;52.038;5.566;2022-08-20T07:40:52;13.55;;;4.00;;
68763;SDS011;55754;52.038;5.566;2022-08-20T07:43:22;13.63;;;3.67;;
68763;SDS011;55754;52.038;5.566;2022-08-20T07:45:52;14.07;;;3.75;;
68763;SDS011;55754;52.038;5.566;2022-08-20T07:48:20;12.68;;;3.28;;
68763;SDS011;55754;52.038;5.566;2022-08-20T07:50:50;10.73;;;3.40;;
68763;SDS011;55754;52.038;5.566;2022-08-20T07:53:16;11.07;;;3.85;;
68763;SDS011;55754;52.038;5.566;2022-08-20T07:55:42;15.18;;;3.58;;
68763;SDS011;55754;52.038;5.566;2022-08-20T07:58:09;9.43;;;2.97;;
68763;SDS011;55754;52.038;5.566;2022-08-20T08:00:37;10.63;;;3.10;;
68763;SDS011;55754;52.038;5.566;2022-08-20T08:03:04;8.95;;;2.88;;
68763;SDS011;55754;52.038;5.566;2022-08-20T08:05:30;9.73;;;2.70;;
68763;SDS011;55754;52.038;5.566;2022-08-20T08:07:58;15.20;;;3.10;;
68763;SDS011;55754;52.038;5.566;2022-08-20T08:10:26;10.23;;;2.90;;
68763;SDS011;55754;52.038;5.566;2022-08-20T08:12:53;10.23;;;3.00;;
68763;SDS011;55754;52.038;5.566;2022-08-20T08:15:27;12.80;;;3.00;;
68763;SDS011;55754;52.038;5.566;2022-08-20T08:17:57;9.20;;;2.72;;
68763;SDS011;55754;52.038;5.566;2022-08-20T08:20:27;10.98;;;2.50;;
68763;SDS011;55754;52.038;5.566;2022-08-20T08:22:53;12.70;;;2.50;;
68763;SDS011;55754;52.038;5.566;2022-08-20T08:25:19;9.40;;;2.20;;
68763;SDS011;55754;52.038;5.566;2022-08-20T08:27:45;11.07;;;2.60;;
68763;SDS011;55754;52.038;5.566;2022-08-20T08:30:13;12.50;;;2.40;;
68763;SDS011;55754;52.038;5.566;2022-08-20T08:32:41;11.32;;;2.30;;
68763;SDS011;55754;52.038;5.566;2022-08-20T08:35:26;11.75;;;2.40;;
68763;SDS011;55754;52.038;5.566;2022-08-20T08:37:56;13.23;;;2.13;;
68763;SDS011;55754;52.038;5.566;2022-08-20T08:40:26;11.18;;;2.25;;
68763;SDS011;55754;52.038;5.566;2022-08-20T08:42:54;10.38;;;2.35;;
68763;SDS011;55754;52.038;5.566;2022-08-20T08:45:23;10.70;;;2.20;;
68763;SDS011;55754;52.038;5.566;2022-08-20T08:47:58;9.43;;;2.10;;
68763;SDS011;55754;52.038;5.566;2022-08-20T08:50:25;11.10;;;2.28;;
68763;SDS011;55754;52.038;5.566;2022-08-20T08:52:57;8.50;;;2.13;;
68763;SDS011;55754;52.038;5.566;2022-08-20T08:55:25;10.90;;;2.35;;
68763;SDS011;55754;52.038;5.566;2022-08-20T08:57:52;9.18;;;2.05;;
68763;SDS011;55754;52.038;5.566;2022-08-20T09:00:20;12.13;;;2.50;;
68763;SDS011;55754;52.038;5.566;2022-08-20T09:03:01;10.77;;;2.30;;
68763;SDS011;55754;52.038;5.566;2022-08-20T09:08:18;8.38;;;2.00;;
68763;SDS011;55754;52.038;5.566;2022-08-20T09:11:03;13.60;;;2.03;;
68763;SDS011;55754;52.038;5.566;2022-08-20T09:13:30;8.85;;;2.13;;
68763;SDS011;55754;52.038;5.566;2022-08-20T09:15:56;10.20;;;2.40;;
68763;SDS011;55754;52.038;5.566;2022-08-20T09:18:21;10.43;;;2.40;;
68763;SDS011;55754;52.038;5.566;2022-08-20T09:20:47;11.10;;;2.35;;
68763;SDS011;55754;52.038;5.566;2022-08-20T09:23:13;9.03;;;1.77;;
68763;SDS011;55754;52.038;5.566;2022-08-20T09:25:38;10.70;;;2.13;;
68763;SDS011;55754;52.038;5.566;2022-08-20T09:28:04;11.87;;;2.23;;
68763;SDS011;55754;52.038;5.566;2022-08-20T09:30:30;8.95;;;1.90;;
68763;SDS011;55754;52.038;5.566;2022-08-20T09:32:57;9.27;;;1.77;;
68763;SDS011;55754;52.038;5.566;2022-08-20T09:35:23;10.80;;;2.25;;
68763;SDS011;55754;52.038;5.566;2022-08-20T09:37:49;10.27;;;2.05;;
68763;SDS011;55754;52.038;5.566;2022-08-20T09:40:16;10.00;;;1.80;;
68763;SDS011;55754;52.038;5.566;2022-08-20T09:42:42;10.45;;;1.90;;
68763;SDS011;55754;52.038;5.566;2022-08-20T09:45:09;8.60;;;1.77;;
68763;SDS011;55754;52.038;5.566;2022-08-20T09:47:35;9.70;;;1.60;;
68763;SDS011;55754;52.038;5.566;2022-08-20T09:50:02;8.20;;;1.73;;
68763;SDS011;55754;52.038;5.566;2022-08-20T09:52:30;10.57;;;1.77;;
68763;SDS011;55754;52.038;5.566;2022-08-20T09:55:05;10.60;;;1.70;;
68763;SDS011;55754;52.038;5.566;2022-08-20T09:57:40;7.50;;;1.60;;
68763;SDS011;55754;52.038;5.566;2022-08-20T10:00:07;9.05;;;1.60;;
68763;SDS011;55754;52.038;5.566;2022-08-20T10:02:34;10.70;;;1.60;;
68763;SDS011;55754;52.038;5.566;2022-08-20T10:05:00;10.07;;;1.88;;
68763;SDS011;55754;52.038;5.566;2022-08-20T10:07:25;7.05;;;1.50;;
68763;SDS011;55754;52.038;5.566;2022-08-20T10:09:51;11.27;;;1.90;;
68763;SDS011;55754;52.038;5.566;2022-08-20T10:12:16;7.87;;;1.60;;
68763;SDS011;55754;52.038;5.566;2022-08-20T10:14:42;7.63;;;1.65;;
68763;SDS011;55754;52.038;5.566;2022-08-20T10:17:08;9.33;;;1.90;;
68763;SDS011;55754;52.038;5.566;2022-08-20T10:19:34;8.57;;;1.90;;
68763;SDS011;55754;52.038;5.566;2022-08-20T10:21:59;11.02;;;2.00;;
68763;SDS011;55754;52.038;5.566;2022-08-20T10:24:26;7.57;;;1.80;;
68763;SDS011;55754;52.038;5.566;2022-08-20T10:26:58;10.57;;;2.10;;
68763;SDS011;55754;52.038;5.566;2022-08-20T10:29:25;8.07;;;1.77;;
68763;SDS011;55754;52.038;5.566;2022-08-20T10:31:53;7.00;;;1.47;;
68763;SDS011;55754;52.038;5.566;2022-08-20T10:34:20;7.82;;;1.48;;
68763;SDS011;55754;52.038;5.566;2022-08-20T10:36:47;7.88;;;1.80;;
68763;SDS011;55754;52.038;5.566;2022-08-20T10:39:13;6.70;;;1.40;;
68763;SDS011;55754;52.038;5.566;2022-08-20T10:41:39;7.47;;;1.50;;
68763;SDS011;55754;52.038;5.566;2022-08-20T10:44:04;7.57;;;1.67;;
68763;SDS011;55754;52.038;5.566;2022-08-20T10:46:30;7.67;;;1.50;;
68763;SDS011;55754;52.038;5.566;2022-08-20T10:48:56;6.07;;;1.35;;
68763;SDS011;55754;52.038;5.566;2022-08-20T10:51:21;8.77;;;1.70;;
68763;SDS011;55754;52.038;5.566;2022-08-20T10:53:47;6.75;;;1.40;;
68763;SDS011;55754;52.038;5.566;2022-08-20T10:56:13;10.70;;;1.83;;
68763;SDS011;55754;52.038;5.566;2022-08-20T10:58:38;8.85;;;1.70;;
68763;SDS011;55754;52.038;5.566;2022-08-20T11:01:04;10.73;;;1.90;;
68763;SDS011;55754;52.038;5.566;2022-08-20T11:03:30;7.00;;;1.60;;
68763;SDS011;55754;52.038;5.566;2022-08-20T11:05:55;10.67;;;1.80;;
68763;SDS011;55754;52.038;5.566;2022-08-20T11:08:21;8.55;;;1.90;;
68763;SDS011;55754;52.038;5.566;2022-08-20T11:10:47;8.73;;;1.73;;
68763;SDS011;55754;52.038;5.566;2022-08-20T11:13:12;8.45;;;1.67;;
68763;SDS011;55754;52.038;5.566;2022-08-20T11:15:40;12.83;;;2.00;;
68763;SDS011;55754;52.038;5.566;2022-08-20T11:18:07;8.45;;;1.88;;
68763;SDS011;55754;52.038;5.566;2022-08-20T11:20:34;9.65;;;1.70;;
68763;SDS011;55754;52.038;5.566;2022-08-20T11:23:00;8.73;;;1.90;;
68763;SDS011;55754;52.038;5.566;2022-08-20T11:25:27;6.88;;;1.88;;
68763;SDS011;55754;52.038;5.566;2022-08-20T11:27:54;10.45;;;1.80;;
68763;SDS011;55754;52.038;5.566;2022-08-20T11:30:25;9.90;;;2.10;;
68763;SDS011;55754;52.038;5.566;2022-08-20T11:32:52;9.57;;;1.95;;
68763;SDS011;55754;52.038;5.566;2022-08-20T11:35:19;8.35;;;2.03;;
68763;SDS011;55754;52.038;5.566;2022-08-20T11:37:47;12.13;;;2.20;;
68763;SDS011;55754;52.038;5.566;2022-08-20T11:40:17;7.03;;;1.90;;
68763;SDS011;55754;52.038;5.566;2022-08-20T11:42:44;8.43;;;2.05;;
68763;SDS011;55754;52.038;5.566;2022-08-20T11:45:11;7.45;;;2.28;;
68763;SDS011;55754;52.038;5.566;2022-08-20T11:47:37;9.10;;;2.03;;
68763;SDS011;55754;52.038;5.566;2022-08-20T11:50:05;12.10;;;2.20;;
68763;SDS011;55754;52.038;5.566;2022-08-20T11:52:32;10.10;;;1.93;;
68763;SDS011;55754;52.038;5.566;2022-08-20T11:54:58;7.40;;;2.03;;
68763;SDS011;55754;52.038;5.566;2022-08-20T11:57:26;11.85;;;2.13;;
68763;SDS011;55754;52.038;5.566;2022-08-20T11:59:57;10.60;;;2.17;;
68763;SDS011;55754;52.038;5.566;2022-08-20T12:02:24;9.73;;;2.03;;
68763;SDS011;55754;52.038;5.566;2022-08-20T12:04:50;9.88;;;2.30;;
68763;SDS011;55754;52.038;5.566;2022-08-20T12:07:17;13.13;;;2.17;;
68763;SDS011;55754;52.038;5.566;2022-08-20T12:09:47;8.23;;;2.10;;
68763;SDS011;55754;52.038;5.566;2022-08-20T12:12:13;10.43;;;2.17;;
68763;SDS011;55754;52.038;5.566;2022-08-20T12:14:39;11.00;;;2.30;;
68763;SDS011;55754;52.038;5.566;2022-08-20T12:17:23;10.40;;;2.13;;
68763;SDS011;55754;52.038;5.566;2022-08-20T12:19:51;11.10;;;2.10;;
68763;SDS011;55754;52.038;5.566;2022-08-20T12:22:19;7.82;;;1.90;;
68763;SDS011;55754;52.038;5.566;2022-08-20T12:24:45;9.77;;;2.20;;
68763;SDS011;55754;52.038;5.566;2022-08-20T12:27:22;7.80;;;2.05;;
68763;SDS011;55754;52.038;5.566;2022-08-20T12:29:53;6.43;;;1.90;;
68763;SDS011;55754;52.038;5.566;2022-08-20T12:32:21;9.43;;;2.00;;
68763;SDS011;55754;52.038;5.566;2022-08-20T12:34:48;11.27;;;2.50;;
68763;SDS011;55754;52.038;5.566;2022-08-20T12:37:15;13.40;;;2.50;;
68763;SDS011;55754;52.038;5.566;2022-08-20T12:39:45;9.00;;;2.20;;
68763;SDS011;55754;52.038;5.566;2022-08-20T12:42:13;14.77;;;2.23;;
68763;SDS011;55754;52.038;5.566;2022-08-20T12:44:38;10.57;;;2.17;;
68763;SDS011;55754;52.038;5.566;2022-08-20T12:47:05;12.98;;;2.30;;
68763;SDS011;55754;52.038;5.566;2022-08-20T12:49:33;8.97;;;2.20;;
68763;SDS011;55754;52.038;5.566;2022-08-20T12:51:59;13.48;;;2.45;;
68763;SDS011;55754;52.038;5.566;2022-08-20T12:54:24;9.97;;;2.67;;
68763;SDS011;55754;52.038;5.566;2022-08-20T12:56:50;9.00;;;2.15;;
68763;SDS011;55754;52.038;5.566;2022-08-20T12:59:16;9.50;;;2.40;;
68763;SDS011;55754;52.038;5.566;2022-08-20T13:01:42;10.07;;;2.10;;
68763;SDS011;55754;52.038;5.566;2022-08-20T13:04:08;8.02;;;2.25;;
68763;SDS011;55754;52.038;5.566;2022-08-20T13:06:34;10.70;;;2.30;;
68763;SDS011;55754;52.038;5.566;2022-08-20T13:09:00;13.15;;;4.97;;
68763;SDS011;55754;52.038;5.566;2022-08-20T13:11:25;9.17;;;2.40;;
68763;SDS011;55754;52.038;5.566;2022-08-20T13:13:51;11.48;;;2.60;;
68763;SDS011;55754;52.038;5.566;2022-08-20T13:16:17;9.30;;;2.33;;
68763;SDS011;55754;52.038;5.566;2022-08-20T13:18:42;13.20;;;3.00;;
68763;SDS011;55754;52.038;5.566;2022-08-20T13:21:09;10.30;;;2.30;;
68763;SDS011;55754;52.038;5.566;2022-08-20T13:23:35;16.63;;;2.58;;
68763;SDS011;55754;52.038;5.566;2022-08-20T13:26:00;9.17;;;2.67;;
68763;SDS011;55754;52.038;5.566;2022-08-20T13:28:26;10.18;;;2.58;;
68763;SDS011;55754;52.038;5.566;2022-08-20T13:30:52;9.82;;;2.25;;
68763;SDS011;55754;52.038;5.566;2022-08-20T13:33:17;8.23;;;2.50;;
68763;SDS011;55754;52.038;5.566;2022-08-20T13:35:43;11.37;;;2.77;;
68763;SDS011;55754;52.038;5.566;2022-08-20T13:38:08;8.70;;;2.55;;
68763;SDS011;55754;52.038;5.566;2022-08-20T13:40:34;9.83;;;2.40;;
68763;SDS011;55754;52.038;5.566;2022-08-20T13:43:00;8.77;;;2.58;;
68763;SDS011;55754;52.038;5.566;2022-08-20T13:45:25;9.87;;;2.13;;
68763;SDS011;55754;52.038;5.566;2022-08-20T13:47:52;9.63;;;2.53;;
68763;SDS011;55754;52.038;5.566;2022-08-20T13:50:19;9.85;;;2.63;;
68763;SDS011;55754;52.038;5.566;2022-08-20T13:52:46;8.57;;;2.33;;
68763;SDS011;55754;52.038;5.566;2022-08-20T13:55:13;8.57;;;2.10;;
68763;SDS011;55754;52.038;5.566;2022-08-20T13:57:41;9.95;;;2.22;;
68763;SDS011;55754;52.038;5.566;2022-08-20T14:00:08;11.05;;;2.22;;
68763;SDS011;55754;52.038;5.566;2022-08-20T14:02:37;10.00;;;2.50;;
68763;SDS011;55754;52.038;5.566;2022-08-20T14:05:03;10.67;;;2.37;;
68763;SDS011;55754;52.038;5.566;2022-08-20T14:07:29;10.90;;;2.10;;
68763;SDS011;55754;52.038;5.566;2022-08-20T14:09:56;10.50;;;2.30;;
68763;SDS011;55754;52.038;5.566;2022-08-20T14:12:24;6.90;;;1.75;;
68763;SDS011;55754;52.038;5.566;2022-08-20T14:14:51;11.98;;;2.03;;
68763;SDS011;55754;52.038;5.566;2022-08-20T14:17:24;12.23;;;2.35;;
68763;SDS011;55754;52.038;5.566;2022-08-20T14:19:51;8.00;;;1.90;;
68763;SDS011;55754;52.038;5.566;2022-08-20T14:22:19;11.63;;;1.90;;
68763;SDS011;55754;52.038;5.566;2022-08-20T14:24:45;9.43;;;2.03;;
68763;SDS011;55754;52.038;5.566;2022-08-20T14:27:12;10.83;;;2.00;;
68763;SDS011;55754;52.038;5.566;2022-08-20T14:29:40;7.57;;;1.65;;
68763;SDS011;55754;52.038;5.566;2022-08-20T14:32:09;8.75;;;1.80;;
68763;SDS011;55754;52.038;5.566;2022-08-20T14:34:35;9.60;;;1.70;;
68763;SDS011;55754;52.038;5.566;2022-08-20T14:37:14;7.45;;;1.92;;
68763;SDS011;55754;52.038;5.566;2022-08-20T14:39:43;9.82;;;2.28;;
68763;SDS011;55754;52.038;5.566;2022-08-20T14:42:10;10.25;;;2.22;;
68763;SDS011;55754;52.038;5.566;2022-08-20T14:44:36;7.43;;;1.87;;
68763;SDS011;55754;52.038;5.566;2022-08-20T14:47:16;8.38;;;1.88;;
68763;SDS011;55754;52.038;5.566;2022-08-20T14:49:45;9.25;;;2.22;;
68763;SDS011;55754;52.038;5.566;2022-08-20T14:52:12;10.30;;;2.10;;
68763;SDS011;55754;52.038;5.566;2022-08-20T14:54:39;9.77;;;2.25;;